createdAt,value
2017-07-04T00:00:51.711Z,15.20
2017-07-04T00:03:18.834Z,15.20
2017-07-04T00:05:45.172Z,15.20
2017-07-04T00:08:11.534Z,15.20
2017-07-04T00:10:37.889Z,15.20
2017-07-04T00:13:04.549Z,15.10
2017-07-04T00:15:30.910Z,15.10
2017-07-04T00:17:58.034Z,15.10
2017-07-04T00:20:24.400Z,15.00
2017-07-04T00:22:50.747Z,15.00
2017-07-04T00:25:17.095Z,15.00
2017-07-04T00:27:43.443Z,15.00
2017-07-04T00:30:10.067Z,14.90
2017-07-04T00:32:36.430Z,14.90
2017-07-04T00:35:03.511Z,14.90
2017-07-04T00:37:29.866Z,14.90
2017-07-04T00:39:56.251Z,15.00
2017-07-04T00:42:22.666Z,15.00
2017-07-04T00:44:49.758Z,15.00
2017-07-04T00:47:16.144Z,15.00
2017-07-04T00:49:43.236Z,15.10
2017-07-04T00:52:09.889Z,15.10
2017-07-04T00:54:36.245Z,15.20
2017-07-04T00:57:02.610Z,15.20
2017-07-04T00:59:29.039Z,15.20
2017-07-04T01:01:55.420Z,15.20
2017-07-04T01:04:21.783Z,15.20
2017-07-04T01:06:48.156Z,15.30
2017-07-04T01:09:14.505Z,15.30
2017-07-04T01:11:40.819Z,15.30
2017-07-04T01:14:07.501Z,15.30
2017-07-04T01:16:33.810Z,15.30
2017-07-04T01:19:00.174Z,15.40
2017-07-04T01:21:27.276Z,15.40
2017-07-04T01:23:53.625Z,15.40
2017-07-04T01:26:20.001Z,15.40
2017-07-04T01:28:46.400Z,15.40
2017-07-04T01:31:13.517Z,15.40
2017-07-04T01:33:39.873Z,15.40
2017-07-04T01:36:06.598Z,15.40
2017-07-04T01:38:32.994Z,15.30
2017-07-04T01:40:59.362Z,15.30
2017-07-04T01:43:25.789Z,15.30
2017-07-04T01:45:52.144Z,15.30
2017-07-04T01:48:19.281Z,15.20
2017-07-04T01:50:46.431Z,15.10
2017-07-04T01:53:13.589Z,15.10
2017-07-04T01:55:40.693Z,15.10
2017-07-04T01:58:07.348Z,15.10
2017-07-04T02:00:33.687Z,15.00
2017-07-04T02:03:00.120Z,15.00
2017-07-04T02:05:26.475Z,15.00
2017-07-04T02:07:52.809Z,15.00
2017-07-04T02:10:19.747Z,14.90
2017-07-04T02:12:46.088Z,14.90
2017-07-04T02:15:12.784Z,14.80
2017-07-04T02:17:39.145Z,14.80
2017-07-04T02:20:05.517Z,14.80
2017-07-04T02:22:31.887Z,14.70
2017-07-04T02:24:58.946Z,14.70
2017-07-04T02:27:25.341Z,14.70
2017-07-04T02:29:51.671Z,14.60
2017-07-04T02:32:18.008Z,14.60
2017-07-04T02:34:45.132Z,14.50
2017-07-04T02:37:11.495Z,14.50
2017-07-04T02:39:37.838Z,14.50
2017-07-04T02:42:04.226Z,14.50
2017-07-04T02:44:30.619Z,14.50
2017-07-04T02:46:56.975Z,14.50
2017-07-04T02:49:23.748Z,14.50
2017-07-04T02:51:50.094Z,14.50
2017-07-04T02:54:16.459Z,14.50
2017-07-04T02:56:42.866Z,14.60
2017-07-04T02:59:09.186Z,14.60
2017-07-04T03:01:35.635Z,14.70
2017-07-04T03:04:02.002Z,14.70
2017-07-04T03:06:28.362Z,14.80
2017-07-04T03:08:54.703Z,14.80
2017-07-04T03:11:21.354Z,14.80
2017-07-04T03:13:47.710Z,14.80
2017-07-04T03:16:14.055Z,14.70
2017-07-04T03:18:40.394Z,14.70
2017-07-04T03:21:06.742Z,14.60
2017-07-04T03:23:33.817Z,14.60
2017-07-04T03:26:00.188Z,14.60
2017-07-04T03:28:26.827Z,14.50
2017-07-04T03:30:53.167Z,14.50
2017-07-04T03:33:19.471Z,14.60
2017-07-04T03:35:45.827Z,14.60
2017-07-04T03:38:13.159Z,14.70
2017-07-04T03:40:39.494Z,14.80
2017-07-04T03:43:05.872Z,14.80
2017-07-04T03:45:32.236Z,14.90
2017-07-04T03:47:58.584Z,15.00
2017-07-04T03:50:25.253Z,15.00
2017-07-04T03:52:51.594Z,15.10
2017-07-04T03:55:17.937Z,15.10
2017-07-04T03:57:44.329Z,15.10
2017-07-04T04:00:10.717Z,15.20
2017-07-04T04:02:37.145Z,15.20
2017-07-04T04:05:03.512Z,15.30
2017-07-04T04:07:30.253Z,15.30
2017-07-04T04:09:56.624Z,15.50
2017-07-04T04:12:22.968Z,15.70
2017-07-04T04:14:49.312Z,15.80
2017-07-04T04:17:15.661Z,16.00
2017-07-04T04:19:42.294Z,16.10
2017-07-04T04:22:08.651Z,16.00
2017-07-04T04:24:35.027Z,16.00
2017-07-04T04:27:01.441Z,16.00
2017-07-04T04:29:27.775Z,16.10
2017-07-04T04:31:54.142Z,16.20
2017-07-04T04:34:20.490Z,16.30
2017-07-04T04:36:46.872Z,16.40
2017-07-04T04:39:13.214Z,16.60
2017-07-04T04:41:39.851Z,16.60
2017-07-04T04:44:06.220Z,16.60
2017-07-04T04:46:32.600Z,16.70
2017-07-04T04:48:58.980Z,16.70
2017-07-04T04:51:25.306Z,16.60
2017-07-04T04:53:51.653Z,16.60
2017-07-04T04:56:18.016Z,16.60
2017-07-04T04:58:44.686Z,16.60
2017-07-04T05:01:11.773Z,16.80
2017-07-04T05:03:38.198Z,16.80
2017-07-04T05:06:04.546Z,16.80
2017-07-04T05:08:30.908Z,16.80
2017-07-04T05:10:57.268Z,16.70
2017-07-04T05:13:24.370Z,16.90
2017-07-04T05:15:50.717Z,16.90
2017-07-04T05:18:17.062Z,17.00
2017-07-04T05:20:43.632Z,17.10
2017-07-04T05:23:09.999Z,17.20
2017-07-04T05:25:36.397Z,17.30
2017-07-04T05:28:02.769Z,17.40
2017-07-04T05:30:29.153Z,17.40
2017-07-04T05:32:55.515Z,17.30
2017-07-04T05:35:21.892Z,17.40
2017-07-04T05:37:48.262Z,17.30
2017-07-04T05:40:14.643Z,17.20
2017-07-04T05:42:41.292Z,17.20
2017-07-04T05:45:08.443Z,17.20
2017-07-04T05:47:34.782Z,17.20
2017-07-04T05:50:01.219Z,17.30
2017-07-04T05:52:27.568Z,17.40
2017-07-04T05:54:53.929Z,17.50
2017-07-04T05:57:20.312Z,17.60
2017-07-04T05:59:46.700Z,17.70
2017-07-04T06:02:13.186Z,17.70
2017-07-04T06:04:39.988Z,17.70
2017-07-04T06:07:07.090Z,17.70
2017-07-04T06:09:33.482Z,17.70
2017-07-04T06:11:59.877Z,17.80
2017-07-04T06:14:26.226Z,17.70
2017-07-04T06:16:52.621Z,17.70
2017-07-04T06:19:18.933Z,17.70
2017-07-04T06:21:45.298Z,17.70
2017-07-04T06:24:11.640Z,17.80
2017-07-04T06:26:39.071Z,17.90
2017-07-04T06:29:05.405Z,17.90
2017-07-04T06:31:31.765Z,18.10
2017-07-04T06:33:58.129Z,18.30
2017-07-04T06:36:24.495Z,18.50
2017-07-04T06:38:50.905Z,18.70
2017-07-04T06:41:17.258Z,19.00
2017-07-04T06:43:43.658Z,19.10
2017-07-04T06:46:10.042Z,19.30
2017-07-04T06:48:37.373Z,19.50
2017-07-04T06:51:03.729Z,19.50
2017-07-04T06:53:30.807Z,19.60
2017-07-04T06:55:57.151Z,19.60
2017-07-04T06:58:23.562Z,19.70
2017-07-04T07:00:49.938Z,19.70
2017-07-04T07:03:16.369Z,19.80
2017-07-04T07:05:43.103Z,19.80
2017-07-04T07:08:10.204Z,19.90
2017-07-04T07:10:36.527Z,19.90
2017-07-04T07:13:02.893Z,20.00
2017-07-04T07:15:29.197Z,20.10
2017-07-04T07:17:55.543Z,20.10
2017-07-04T07:20:21.866Z,20.20
2017-07-04T07:22:48.212Z,20.20
2017-07-04T07:25:14.592Z,20.10
2017-07-04T07:27:40.955Z,20.10
2017-07-04T07:30:07.316Z,20.10
2017-07-04T07:32:33.691Z,20.20
2017-07-04T07:35:00.382Z,20.40
2017-07-04T07:37:26.785Z,20.50
2017-07-04T07:39:53.139Z,20.50
2017-07-04T07:42:19.523Z,20.60
2017-07-04T07:44:45.868Z,20.70
2017-07-04T07:47:12.216Z,20.70
2017-07-04T07:49:38.606Z,20.80
2017-07-04T07:52:05.323Z,20.90
2017-07-04T07:54:31.656Z,20.90
2017-07-04T07:56:58.046Z,21.00
2017-07-04T07:59:24.418Z,21.10
2017-07-04T08:01:50.809Z,21.10
2017-07-04T08:04:17.190Z,21.30
2017-07-04T08:06:43.550Z,21.40
2017-07-04T08:09:09.931Z,21.40
2017-07-04T08:11:36.992Z,21.60
2017-07-04T08:14:03.638Z,21.60
2017-07-04T08:16:30.026Z,21.60
2017-07-04T08:18:57.117Z,21.40
2017-07-04T08:21:23.457Z,21.40
2017-07-04T08:23:49.843Z,21.30
2017-07-04T08:26:16.951Z,21.30
2017-07-04T08:28:43.295Z,21.30
2017-07-04T08:31:09.649Z,21.30
2017-07-04T08:33:36.779Z,21.50
2017-07-04T08:36:03.423Z,21.50
2017-07-04T08:38:29.757Z,21.70
2017-07-04T08:40:56.864Z,21.90
2017-07-04T08:43:23.231Z,21.90
2017-07-04T08:45:50.347Z,22.30
2017-07-04T08:48:16.728Z,22.20
2017-07-04T08:50:43.093Z,22.30
2017-07-04T08:53:09.456Z,22.50
2017-07-04T08:55:35.819Z,22.60
2017-07-04T08:58:02.157Z,22.80
2017-07-04T09:00:28.501Z,22.90
2017-07-04T09:02:54.896Z,23.20
2017-07-04T09:05:21.538Z,23.30
2017-07-04T09:07:48.640Z,23.30
2017-07-04T09:10:14.974Z,23.30
2017-07-04T09:12:41.338Z,23.10
2017-07-04T09:15:08.667Z,23.00
2017-07-04T09:17:35.801Z,23.00
2017-07-04T09:20:02.171Z,23.00
2017-07-04T09:22:29.292Z,23.00
2017-07-04T09:24:55.637Z,23.00
2017-07-04T09:27:21.961Z,22.90
2017-07-04T09:29:49.082Z,23.00
2017-07-04T09:32:15.415Z,23.00
2017-07-04T09:34:42.060Z,23.20
2017-07-04T09:37:08.412Z,23.40
2017-07-04T09:39:35.489Z,23.70
2017-07-04T09:42:01.824Z,23.60
2017-07-04T09:44:28.179Z,23.70
2017-07-04T09:46:54.557Z,23.70
2017-07-04T09:49:20.917Z,23.70
2017-07-04T09:51:47.270Z,23.90
2017-07-04T09:54:13.621Z,23.90
2017-07-04T09:56:40.710Z,23.80
2017-07-04T09:59:07.114Z,23.80
2017-07-04T10:01:34.142Z,23.90
2017-07-04T10:04:01.287Z,23.90
2017-07-04T10:06:28.326Z,24.10
2017-07-04T10:08:54.684Z,24.10
2017-07-04T10:11:21.034Z,24.50
2017-07-04T10:13:47.371Z,24.90
2017-07-04T10:16:13.740Z,25.30
2017-07-04T10:18:40.111Z,25.60
2017-07-04T10:21:06.493Z,25.60
2017-07-04T10:23:32.864Z,25.80
2017-07-04T10:26:00.008Z,26.10
2017-07-04T10:28:26.368Z,26.10
2017-07-04T10:30:52.690Z,26.10
2017-07-04T10:33:19.051Z,26.40
2017-07-04T10:35:45.365Z,26.80
2017-07-04T10:38:11.727Z,27.40
2017-07-04T10:40:38.097Z,27.30
2017-07-04T10:43:04.461Z,27.00
2017-07-04T10:45:30.842Z,26.60
2017-07-04T10:47:57.964Z,25.70
2017-07-04T10:50:25.426Z,25.70
2017-07-04T10:52:52.490Z,25.50
2017-07-04T10:55:18.847Z,25.50
2017-07-04T10:57:52.241Z,25.90
2017-07-04T11:00:18.595Z,26.50
2017-07-04T11:02:44.940Z,26.80
2017-07-04T11:05:11.710Z,27.00
2017-07-04T11:07:38.086Z,27.50
2017-07-04T11:10:11.723Z,27.80
2017-07-04T11:12:38.055Z,27.50
2017-07-04T11:15:04.434Z,27.10
2017-07-04T11:17:30.826Z,26.80
2017-07-04T11:19:57.928Z,26.70
2017-07-04T11:22:24.374Z,26.70
2017-07-04T11:24:50.729Z,26.70
2017-07-04T11:27:17.109Z,26.70
2017-07-04T11:29:43.456Z,26.50
2017-07-04T11:32:10.097Z,26.40
2017-07-04T11:34:36.456Z,26.30
2017-07-04T11:37:02.842Z,26.70
2017-07-04T11:39:29.206Z,27.50
2017-07-04T11:41:55.555Z,28.30
2017-07-04T11:44:22.675Z,29.10
2017-07-04T11:46:49.015Z,29.00
2017-07-04T11:49:16.105Z,29.30
2017-07-04T11:51:42.468Z,29.30
2017-07-04T11:54:09.129Z,29.40
2017-07-04T11:56:35.451Z,29.30
2017-07-04T11:59:01.784Z,29.30
2017-07-04T12:01:28.143Z,29.30
2017-07-04T12:03:54.630Z,29.50
2017-07-04T12:06:20.977Z,29.80
2017-07-04T12:08:48.051Z,30.70
2017-07-04T12:11:14.754Z,30.70
2017-07-04T12:13:41.087Z,31.10
2017-07-04T12:16:08.152Z,31.20
2017-07-04T12:18:35.258Z,30.70
2017-07-04T12:21:01.615Z,30.70
2017-07-04T12:23:28.716Z,30.20
2017-07-04T12:25:55.073Z,30.20
2017-07-04T12:28:22.736Z,30.30
2017-07-04T12:30:51.945Z,30.30
2017-07-04T12:33:22.495Z,30.80
2017-07-04T12:35:49.435Z,30.80
2017-07-04T12:38:15.823Z,31.20
2017-07-04T12:40:42.213Z,31.50
2017-07-04T12:43:08.557Z,31.80
2017-07-04T12:45:34.967Z,32.00
2017-07-04T12:48:01.290Z,32.20
2017-07-04T12:50:27.949Z,32.40
2017-07-04T12:52:54.346Z,32.50
2017-07-04T12:55:20.729Z,32.60
2017-07-04T12:57:47.115Z,32.60
2017-07-04T13:00:13.452Z,32.50
2017-07-04T13:02:39.883Z,32.60
2017-07-04T13:05:06.258Z,32.60
2017-07-04T13:07:32.603Z,32.80
2017-07-04T13:09:58.966Z,32.50
2017-07-04T13:12:25.315Z,31.80
2017-07-04T13:14:52.005Z,31.70
2017-07-04T13:17:19.120Z,31.00
2017-07-04T13:19:45.491Z,31.00
2017-07-04T13:22:12.598Z,32.10
2017-07-04T13:24:38.965Z,32.10
2017-07-04T13:27:06.342Z,32.40
2017-07-04T13:29:32.694Z,32.30
2017-07-04T13:31:59.037Z,31.60
2017-07-04T13:34:25.417Z,30.70
2017-07-04T13:36:51.770Z,30.10
2017-07-04T13:39:18.454Z,30.10
2017-07-04T13:41:44.774Z,30.50
2017-07-04T13:44:11.122Z,31.10
2017-07-04T13:46:37.536Z,31.60
2017-07-04T13:49:03.955Z,32.00
2017-07-04T13:51:30.316Z,32.40
2017-07-04T13:53:56.683Z,32.70
2017-07-04T13:56:23.347Z,32.80
2017-07-04T13:58:49.697Z,32.90
2017-07-04T14:01:16.076Z,33.00
2017-07-04T14:03:42.604Z,33.20
2017-07-04T14:06:08.948Z,33.40
2017-07-04T14:08:35.371Z,33.40
2017-07-04T14:11:01.708Z,33.40
2017-07-04T14:13:28.381Z,33.70
2017-07-04T14:15:54.793Z,33.90
2017-07-04T14:18:21.134Z,34.00
2017-07-04T14:20:47.504Z,33.90
2017-07-04T14:23:13.878Z,34.00
2017-07-04T14:25:40.550Z,34.10
2017-07-04T14:28:06.893Z,34.30
2017-07-04T14:30:33.246Z,34.50
2017-07-04T14:32:59.600Z,34.40
2017-07-04T14:35:25.995Z,34.10
2017-07-04T14:37:52.411Z,33.80
2017-07-04T14:40:18.767Z,33.60
2017-07-04T14:42:45.119Z,33.60
2017-07-04T14:45:11.555Z,33.50
2017-07-04T14:47:38.201Z,33.50
2017-07-04T14:50:04.516Z,33.60
2017-07-04T14:52:30.858Z,33.50
2017-07-04T14:54:57.285Z,33.10
2017-07-04T14:57:23.643Z,32.50
2017-07-04T14:59:49.988Z,31.90
2017-07-04T15:02:17.139Z,30.50
2017-07-04T15:04:44.576Z,29.90
2017-07-04T15:07:10.926Z,29.90
2017-07-04T15:09:38.016Z,29.50
2017-07-04T15:12:04.414Z,29.50
2017-07-04T15:14:30.753Z,30.10
2017-07-04T15:16:57.138Z,30.80
2017-07-04T15:19:23.545Z,31.50
2017-07-04T15:21:50.147Z,32.00
2017-07-04T15:24:16.493Z,32.50
2017-07-04T15:26:42.846Z,32.90
2017-07-04T15:29:09.191Z,33.00
2017-07-04T15:31:35.549Z,33.00
2017-07-04T15:34:02.662Z,32.90
2017-07-04T15:36:29.007Z,32.90
2017-07-04T15:38:55.749Z,33.00
2017-07-04T15:41:22.838Z,33.20
2017-07-04T15:43:49.223Z,33.10
2017-07-04T15:46:15.570Z,33.10
2017-07-04T15:48:41.915Z,33.20
2017-07-04T15:51:08.282Z,33.20
2017-07-04T15:53:34.668Z,33.20
2017-07-04T15:56:01.347Z,33.10
2017-07-04T15:58:27.732Z,33.10
2017-07-04T16:00:54.053Z,33.10
2017-07-04T16:03:21.242Z,33.00
2017-07-04T16:05:47.639Z,33.00
2017-07-04T16:08:14.300Z,32.90
2017-07-04T16:10:40.644Z,32.80
2017-07-04T16:13:07.001Z,32.80
2017-07-04T16:15:33.373Z,32.90
2017-07-04T16:17:59.724Z,32.80
2017-07-04T16:20:26.367Z,32.70
2017-07-04T16:22:52.747Z,32.60
2017-07-04T16:25:19.850Z,32.60
2017-07-04T16:27:46.212Z,32.60
2017-07-04T16:30:12.633Z,32.70
2017-07-04T16:32:38.968Z,32.70
2017-07-04T16:35:05.339Z,32.70
2017-07-04T16:37:32.022Z,32.60
2017-07-04T16:39:58.426Z,32.60
2017-07-04T16:42:24.789Z,32.50
2017-07-04T16:44:51.165Z,32.40
2017-07-04T16:47:17.529Z,32.30
2017-07-04T16:49:43.951Z,32.20
2017-07-04T16:52:10.325Z,31.90
2017-07-04T16:54:37.769Z,31.50
2017-07-04T16:57:04.907Z,31.40
2017-07-04T16:59:31.263Z,31.40
2017-07-04T17:01:58.422Z,31.30
2017-07-04T17:04:24.813Z,31.30
2017-07-04T17:06:51.172Z,31.30
2017-07-04T17:09:18.270Z,31.10
2017-07-04T17:11:44.932Z,31.10
2017-07-04T17:14:11.350Z,30.90
2017-07-04T17:16:37.727Z,30.60
2017-07-04T17:19:04.833Z,30.40
2017-07-04T17:21:31.209Z,30.40
2017-07-04T17:23:57.591Z,30.40
2017-07-04T17:26:23.976Z,30.20
2017-07-04T17:28:50.706Z,30.00
2017-07-04T17:31:17.090Z,29.60
2017-07-04T17:33:43.434Z,29.30
2017-07-04T17:36:10.590Z,29.00
2017-07-04T17:38:37.703Z,28.80
2017-07-04T17:41:04.392Z,28.80
2017-07-04T17:43:30.743Z,28.60
2017-07-04T17:45:57.106Z,28.40
2017-07-04T17:48:24.203Z,28.20
2017-07-04T17:50:50.582Z,28.20
2017-07-04T17:53:16.957Z,28.10
2017-07-04T17:55:43.333Z,28.00
2017-07-04T17:58:09.682Z,27.90
2017-07-04T18:00:36.287Z,27.70
2017-07-04T18:03:02.692Z,27.60
2017-07-04T18:05:29.046Z,27.40
2017-07-04T18:07:55.710Z,27.30
2017-07-04T18:10:22.093Z,27.10
2017-07-04T18:12:48.451Z,27.00
2017-07-04T18:15:14.854Z,26.80
2017-07-04T18:17:41.184Z,26.60
2017-07-04T18:20:07.559Z,26.50
2017-07-04T18:22:33.907Z,26.40
2017-07-04T18:25:01.300Z,26.10
2017-07-04T18:27:27.651Z,26.00
2017-07-04T18:29:54.071Z,25.90
2017-07-04T18:32:20.435Z,25.70
2017-07-04T18:34:46.802Z,25.50
2017-07-04T18:37:13.188Z,25.30
2017-07-04T18:39:39.641Z,25.20
2017-07-04T18:42:06.287Z,25.00
2017-07-04T18:44:33.364Z,24.60
2017-07-04T18:46:59.817Z,24.60
2017-07-04T18:49:26.206Z,24.40
2017-07-04T18:51:52.593Z,24.20
2017-07-04T18:54:18.971Z,24.00
2017-07-04T18:56:45.569Z,23.90
2017-07-04T18:59:12.308Z,23.70
2017-07-04T19:01:38.656Z,23.60
2017-07-04T19:04:05.033Z,23.40
2017-07-04T19:06:31.449Z,23.20
2017-07-04T19:08:57.831Z,23.00
2017-07-04T19:11:25.039Z,22.60
2017-07-04T19:13:51.424Z,22.60
2017-07-04T19:16:18.081Z,22.50
2017-07-04T19:18:44.484Z,22.30
2017-07-04T19:21:10.909Z,22.20
2017-07-04T19:23:38.090Z,22.00
2017-07-04T19:26:04.484Z,21.90
2017-07-04T19:28:30.899Z,21.80
2017-07-04T19:30:57.292Z,21.70
2017-07-04T19:33:23.723Z,21.70
2017-07-04T19:35:50.100Z,21.60
2017-07-04T19:38:16.488Z,21.50
2017-07-04T19:40:42.844Z,21.40
2017-07-04T19:43:09.284Z,21.30
2017-07-04T19:45:35.646Z,21.30
2017-07-04T19:48:03.104Z,21.10
2017-07-04T19:50:30.258Z,21.00
2017-07-04T19:52:57.409Z,20.90
2017-07-04T19:55:24.536Z,20.80
2017-07-04T19:57:50.879Z,20.80
2017-07-04T20:00:17.973Z,20.60
2017-07-04T20:02:44.395Z,20.70
2017-07-04T20:05:11.087Z,20.60
2017-07-04T20:07:37.442Z,20.50
2017-07-04T20:10:03.891Z,20.40
2017-07-04T20:12:30.277Z,20.30
2017-07-04T20:14:56.630Z,20.30
2017-07-04T20:17:23.011Z,20.20
2017-07-04T20:19:49.393Z,20.10
2017-07-04T20:22:16.112Z,20.10
2017-07-04T20:24:43.246Z,19.90
2017-07-04T20:27:11.225Z,19.90
2017-07-04T20:29:38.353Z,19.80
2017-07-04T20:32:04.691Z,19.80
2017-07-04T20:34:31.431Z,19.70
2017-07-04T20:36:58.569Z,19.60
2017-07-04T20:39:24.943Z,19.60
2017-07-04T20:41:51.308Z,19.50
2017-07-04T20:44:17.676Z,19.40
2017-07-04T20:46:44.780Z,19.30
2017-07-04T20:49:11.111Z,19.30
2017-07-04T20:51:37.479Z,19.20
2017-07-04T20:54:04.596Z,19.10
2017-07-04T20:56:32.391Z,19.20
2017-07-04T20:58:59.513Z,19.00
2017-07-04T21:01:25.836Z,19.00
2017-07-04T21:03:52.299Z,18.90
2017-07-04T21:06:18.665Z,18.90
2017-07-04T21:08:45.014Z,18.90
2017-07-04T21:11:11.366Z,18.80
2017-07-04T21:13:37.723Z,18.80
2017-07-04T21:16:04.808Z,18.70
2017-07-04T21:18:31.157Z,18.60
2017-07-04T21:20:58.005Z,18.60
2017-07-04T21:23:24.374Z,18.60
2017-07-04T21:25:50.736Z,18.60
2017-07-04T21:28:17.109Z,18.50
2017-07-04T21:30:43.534Z,18.40
2017-07-04T21:33:09.906Z,18.40
2017-07-04T21:35:36.277Z,18.30
2017-07-04T21:38:02.651Z,18.30
2017-07-04T21:40:29.737Z,18.20
2017-07-04T21:42:56.096Z,18.20
2017-07-04T21:45:22.441Z,18.20
2017-07-04T21:47:48.785Z,18.10
2017-07-04T21:50:15.135Z,18.10
2017-07-04T21:52:41.470Z,18.00
2017-07-04T21:55:07.811Z,18.00
2017-07-04T21:57:34.204Z,17.90
2017-07-04T22:00:00.559Z,17.80
2017-07-04T22:02:27.003Z,17.70
2017-07-04T22:04:53.346Z,17.70
2017-07-04T22:07:19.737Z,17.70
2017-07-04T22:09:46.097Z,17.60
2017-07-04T22:12:12.468Z,17.60
2017-07-04T22:14:38.828Z,17.60
2017-07-04T22:17:05.216Z,17.50
2017-07-04T22:19:32.558Z,17.50
2017-07-04T22:21:58.945Z,17.40
2017-07-04T22:24:25.266Z,17.40
2017-07-04T22:26:51.611Z,17.40
2017-07-04T22:29:17.954Z,17.30
2017-07-04T22:31:44.288Z,17.30
2017-07-04T22:34:10.667Z,17.30
2017-07-04T22:36:37.016Z,17.30
2017-07-04T22:39:03.493Z,17.20
2017-07-04T22:41:29.817Z,17.20
2017-07-04T22:43:56.211Z,17.10
2017-07-04T22:46:22.574Z,17.10
2017-07-04T22:48:48.902Z,17.00
2017-07-04T22:51:15.300Z,17.00
2017-07-04T22:53:41.685Z,17.00
2017-07-04T22:56:08.028Z,17.00
2017-07-04T22:58:34.364Z,16.90
2017-07-04T23:01:00.697Z,16.90
2017-07-04T23:03:27.133Z,16.90
2017-07-04T23:05:53.512Z,16.80
2017-07-04T23:08:19.858Z,16.80
2017-07-04T23:10:46.226Z,16.80
2017-07-04T23:13:12.564Z,16.70
2017-07-04T23:15:38.896Z,16.70
2017-07-04T23:18:05.285Z,16.70
2017-07-04T23:20:31.704Z,16.60
2017-07-04T23:22:58.035Z,16.60
2017-07-04T23:25:24.388Z,16.50
2017-07-04T23:27:50.751Z,16.50
2017-07-04T23:30:17.128Z,16.40
2017-07-04T23:32:43.472Z,16.40
2017-07-04T23:35:10.597Z,16.40
2017-07-04T23:37:37.718Z,16.40
2017-07-04T23:40:04.105Z,16.40
2017-07-04T23:42:31.229Z,16.40
2017-07-04T23:44:57.556Z,16.40
2017-07-04T23:47:23.906Z,16.40
2017-07-04T23:49:51.014Z,16.30
2017-07-04T23:52:17.372Z,16.30
2017-07-04T23:54:44.540Z,16.30
2017-07-04T23:57:10.874Z,16.30
2017-07-04T23:59:37.242Z,16.30
